createdAt,value
2022-10-24T00:01:11.525Z,100472.59
2022-10-24T00:03:40.252Z,100473.44
2022-10-24T00:06:07.784Z,100486.88
2022-10-24T00:08:35.205Z,100494.03
2022-10-24T00:11:02.616Z,100478.47
2022-10-24T00:13:30.036Z,100490.81
2022-10-24T00:15:57.435Z,100502.16
2022-10-24T00:18:24.839Z,100506.81
2022-10-24T00:20:53.516Z,100526.13
2022-10-24T00:23:20.922Z,100544.34
2022-10-24T00:25:48.545Z,100533.84
2022-10-24T00:28:15.958Z,100523.19
2022-10-24T00:30:43.340Z,100521.34
2022-10-24T00:33:10.753Z,100507.91
2022-10-24T00:35:38.147Z,100499.25
2022-10-24T00:38:06.835Z,100506.41
2022-10-24T00:40:34.236Z,100493.50
2022-10-24T00:43:01.688Z,100487.47
2022-10-24T00:45:40.037Z,100486.78
2022-10-24T00:48:28.848Z,100494.91
2022-10-24T00:50:57.765Z,100494.38
2022-10-24T00:53:26.654Z,100498.56
2022-10-24T00:55:56.748Z,100511.88
2022-10-24T00:58:25.446Z,100527.28
2022-10-24T01:00:52.895Z,100525.19
2022-10-24T01:03:20.305Z,100535.13
2022-10-24T01:05:56.390Z,100526.75
2022-10-24T01:08:28.950Z,100529.13
2022-10-24T01:10:58.952Z,100531.78
2022-10-24T01:13:32.063Z,100523.38
2022-10-24T01:16:03.323Z,100514.97
2022-10-24T01:18:32.730Z,100512.19
2022-10-24T01:21:15.308Z,100500.94
2022-10-24T01:24:27.313Z,100508.78
2022-10-24T01:27:06.723Z,100510.91
2022-10-24T01:29:42.129Z,100518.75
2022-10-24T01:32:12.204Z,100498.41
2022-10-24T01:34:42.333Z,100498.81
2022-10-24T01:37:10.767Z,100489.13
2022-10-24T01:39:49.300Z,100484.69
2022-10-24T01:42:17.718Z,100483.53
2022-10-24T01:44:48.170Z,100461.94
2022-10-24T01:47:16.991Z,100464.47
2022-10-24T01:49:47.247Z,100472.16
2022-10-24T01:52:15.285Z,100468.66
2022-10-24T01:54:42.699Z,100454.63
2022-10-24T01:57:10.505Z,100453.53
2022-10-24T01:59:42.883Z,100442.88
2022-10-24T02:02:13.500Z,100437.53
2022-10-24T02:04:42.619Z,100431.91
2022-10-24T02:07:10.073Z,100438.94
2022-10-24T02:09:37.581Z,100431.78
2022-10-24T02:12:05.125Z,100430.97
2022-10-24T02:14:34.578Z,100441.72
2022-10-24T02:17:02.117Z,100436.69
2022-10-24T02:19:30.822Z,100438.94
2022-10-24T02:22:02.157Z,100433.75
2022-10-24T02:24:30.204Z,100440.63
2022-10-24T02:26:58.974Z,100445.00
2022-10-24T02:29:27.816Z,100449.59
2022-10-24T02:31:56.100Z,100439.81
2022-10-24T02:34:23.777Z,100440.34
2022-10-24T02:36:54.003Z,100433.34
2022-10-24T02:39:21.396Z,100437.00
2022-10-24T02:41:48.793Z,100426.34
2022-10-24T02:44:16.481Z,100433.63
2022-10-24T02:46:43.906Z,100419.34
2022-10-24T02:49:11.504Z,100420.16
2022-10-24T02:51:40.007Z,100421.03
2022-10-24T02:54:08.721Z,100421.03
2022-10-24T02:56:36.136Z,100411.19
2022-10-24T02:59:03.595Z,100409.97
2022-10-24T03:01:31.093Z,100413.75
2022-10-24T03:03:58.597Z,100422.72
2022-10-24T03:06:26.000Z,100419.34
2022-10-24T03:08:53.468Z,100426.38
2022-10-24T03:11:22.176Z,100419.06
2022-10-24T03:13:49.575Z,100412.91
2022-10-24T03:16:16.989Z,100407.31
2022-10-24T03:18:44.400Z,100405.06
2022-10-24T03:21:11.818Z,100409.31
2022-10-24T03:23:39.215Z,100410.13
2022-10-24T03:26:07.075Z,100416.28
2022-10-24T03:28:36.914Z,100416.16
2022-10-24T03:31:04.402Z,100424.13
2022-10-24T03:33:31.922Z,100422.47
2022-10-24T03:35:59.985Z,100417.44
2022-10-24T03:38:27.462Z,100416.03
2022-10-24T03:40:54.856Z,100414.09
2022-10-24T03:43:22.242Z,100418.69
2022-10-24T03:45:50.947Z,100413.38
2022-10-24T03:48:18.357Z,100412.41
2022-10-24T03:50:46.732Z,100411.03
2022-10-24T03:53:14.129Z,100404.00
2022-10-24T03:55:41.621Z,100413.28
2022-10-24T03:58:09.027Z,100415.78
2022-10-24T04:00:40.108Z,100423.94
2022-10-24T04:03:09.637Z,100418.75
2022-10-24T04:05:37.123Z,100422.66
2022-10-24T04:08:04.757Z,100412.00
2022-10-24T04:10:32.152Z,100415.53
2022-10-24T04:12:59.559Z,100421.41
2022-10-24T04:15:27.025Z,100422.94
2022-10-24T04:17:54.430Z,100423.63
2022-10-24T04:20:23.355Z,100425.31
2022-10-24T04:22:50.765Z,100430.63
2022-10-24T04:25:18.353Z,100423.94
2022-10-24T04:27:46.323Z,100420.13
2022-10-24T04:30:16.564Z,100426.13
2022-10-24T04:32:44.714Z,100426.69
2022-10-24T04:35:12.345Z,100423.63
2022-10-24T04:37:41.042Z,100435.81
2022-10-24T04:40:09.262Z,100430.50
2022-10-24T04:42:36.674Z,100426.13
2022-10-24T04:45:04.161Z,100421.25
2022-10-24T04:47:31.570Z,100429.09
2022-10-24T04:49:58.982Z,100421.97
2022-10-24T04:52:26.404Z,100426.28
2022-10-24T04:54:55.126Z,100419.97
2022-10-24T04:57:22.543Z,100420.25
2022-10-24T04:59:49.978Z,100416.91
2022-10-24T05:02:17.566Z,100430.38
2022-10-24T05:04:45.036Z,100443.53
2022-10-24T05:07:12.447Z,100440.06
2022-10-24T05:09:39.882Z,100454.63
2022-10-24T05:12:08.641Z,100462.75
2022-10-24T05:14:36.105Z,100459.56
2022-10-24T05:17:03.504Z,100443.84
2022-10-24T05:19:31.055Z,100444.00
2022-10-24T05:21:58.505Z,100445.84
2022-10-24T05:24:25.907Z,100456.34
2022-10-24T05:26:53.305Z,100469.78
2022-10-24T05:29:21.995Z,100463.72
2022-10-24T05:31:49.530Z,100440.78
2022-10-24T05:34:16.923Z,100449.31
2022-10-24T05:36:44.329Z,100456.88
2022-10-24T05:39:11.733Z,100439.78
2022-10-24T05:41:43.292Z,100436.28
2022-10-24T05:44:13.753Z,100441.03
2022-10-24T05:46:42.449Z,100430.53
2022-10-24T05:49:09.854Z,100429.28
2022-10-24T05:51:37.273Z,100432.94
2022-10-24T05:54:04.877Z,100428.16
2022-10-24T05:56:33.056Z,100429.00
2022-10-24T05:59:00.443Z,100422.84
2022-10-24T06:01:27.958Z,100420.59
2022-10-24T06:03:56.669Z,100420.72
2022-10-24T06:06:24.193Z,100423.13
2022-10-24T06:08:51.647Z,100419.31
2022-10-24T06:11:19.157Z,100424.34
2022-10-24T06:13:46.614Z,100420.84
2022-10-24T06:16:14.036Z,100416.22
2022-10-24T06:18:41.453Z,100415.94
2022-10-24T06:21:10.514Z,100407.34
2022-10-24T06:23:37.903Z,100417.88
2022-10-24T06:26:08.433Z,100408.75
2022-10-24T06:28:35.901Z,100425.56
2022-10-24T06:31:03.796Z,100421.34
2022-10-24T06:33:31.213Z,100419.69
2022-10-24T06:36:00.177Z,100439.84
2022-10-24T06:38:28.889Z,100435.38
2022-10-24T06:40:56.295Z,100440.84
2022-10-24T06:43:23.686Z,100436.22
2022-10-24T06:45:51.109Z,100445.31
2022-10-24T06:48:18.568Z,100438.63
2022-10-24T06:50:45.988Z,100443.81
2022-10-24T06:53:13.448Z,100448.69
2022-10-24T06:55:42.156Z,100447.00
2022-10-24T06:58:09.590Z,100442.97
2022-10-24T07:00:39.400Z,100458.63
2022-10-24T07:03:06.818Z,100459.91
2022-10-24T07:05:34.233Z,100460.47
2022-10-24T07:08:01.628Z,100463.94
2022-10-24T07:10:29.035Z,100468.19
2022-10-24T07:12:57.742Z,100464.25
2022-10-24T07:15:25.142Z,100465.94
2022-10-24T07:17:52.533Z,100474.31
2022-10-24T07:20:19.968Z,100473.75
2022-10-24T07:22:47.640Z,100464.19
2022-10-24T07:25:15.383Z,100458.88
2022-10-24T07:27:42.902Z,100458.88
2022-10-24T07:30:16.286Z,100456.91
2022-10-24T07:32:43.942Z,100454.09
2022-10-24T07:35:12.728Z,100463.63
2022-10-24T07:37:40.131Z,100468.97
2022-10-24T07:40:08.629Z,100467.28
2022-10-24T07:42:36.067Z,100477.91
2022-10-24T07:45:04.355Z,100471.44
2022-10-24T07:47:33.051Z,100481.97
2022-10-24T07:50:00.458Z,100487.16
2022-10-24T07:52:27.861Z,100481.97
2022-10-24T07:54:55.363Z,100484.63
2022-10-24T07:57:22.880Z,100481.00
2022-10-24T07:59:50.292Z,100485.16
2022-10-24T08:02:18.025Z,100480.72
2022-10-24T08:04:46.703Z,100485.34
2022-10-24T08:07:14.124Z,100478.19
2022-10-24T08:09:41.842Z,100464.72
2022-10-24T08:12:09.256Z,100460.25
2022-10-24T08:14:37.593Z,100461.38
2022-10-24T08:17:05.521Z,100456.03
2022-10-24T08:19:32.934Z,100463.75
2022-10-24T08:22:01.704Z,100468.94
2022-10-24T08:24:29.207Z,100469.94
2022-10-24T08:26:56.690Z,100467.97
2022-10-24T08:29:25.117Z,100475.94
2022-10-24T08:31:53.029Z,100472.44
2022-10-24T08:34:20.541Z,100469.75
2022-10-24T08:36:48.453Z,100474.13
2022-10-24T08:39:17.163Z,100468.09
2022-10-24T08:41:46.777Z,100459.97
2022-10-24T08:44:17.884Z,100473.28
2022-10-24T08:46:49.016Z,100474.94
2022-10-24T08:49:20.480Z,100472.44
2022-10-24T08:51:49.022Z,100471.75
2022-10-24T08:54:22.712Z,100464.16
2022-10-24T08:56:50.198Z,100461.19
2022-10-24T08:59:17.602Z,100464.41
2022-10-24T09:01:46.543Z,100468.09
2022-10-24T09:04:15.069Z,100466.53
2022-10-24T09:06:42.473Z,100453.50
2022-10-24T09:09:13.519Z,100457.44
2022-10-24T09:11:47.662Z,100459.97
2022-10-24T09:14:15.876Z,100447.78
2022-10-24T09:16:43.366Z,100454.06
2022-10-24T09:19:11.814Z,100452.66
2022-10-24T09:21:39.487Z,100450.16
2022-10-24T09:24:07.363Z,100468.09
2022-10-24T09:26:34.754Z,100455.31
2022-10-24T09:29:03.449Z,100469.75
2022-10-24T09:31:30.852Z,100468.38
2022-10-24T09:34:00.383Z,100458.94
2022-10-24T09:36:29.987Z,100469.44
2022-10-24T09:38:57.427Z,100469.59
2022-10-24T09:41:25.515Z,100465.25
2022-10-24T09:43:54.977Z,100453.63
2022-10-24T09:46:24.721Z,100477.44
2022-10-24T09:48:56.536Z,100472.25
2022-10-24T09:51:29.737Z,100474.09
2022-10-24T09:54:08.823Z,100470.69
2022-10-24T09:56:37.577Z,100476.63
2022-10-24T09:59:19.569Z,100470.56
2022-10-24T10:01:49.415Z,100475.06
2022-10-24T10:04:17.698Z,100467.06
2022-10-24T10:06:45.507Z,100467.22
2022-10-24T10:09:13.440Z,100469.88
2022-10-24T10:11:49.469Z,100456.56
2022-10-24T10:14:29.631Z,100456.97
2022-10-24T10:17:02.386Z,100458.50
2022-10-24T10:19:29.843Z,100459.63
2022-10-24T10:21:59.605Z,100455.84
2022-10-24T10:24:28.582Z,100453.19
2022-10-24T10:26:56.047Z,100458.22
2022-10-24T10:29:24.186Z,100470.69
2022-10-24T10:31:54.069Z,100468.31
2022-10-24T10:34:26.826Z,100466.66
2022-10-24T10:37:00.984Z,100459.78
2022-10-24T10:39:49.462Z,100461.31
2022-10-24T10:42:18.516Z,100468.16
2022-10-24T10:44:53.476Z,100457.34
2022-10-24T10:47:27.551Z,100464.81
2022-10-24T10:49:58.260Z,100443.63
2022-10-24T10:52:26.553Z,100466.94
2022-10-24T10:55:05.223Z,100454.28
2022-10-24T10:57:35.243Z,100456.97
2022-10-24T11:00:07.717Z,100450.66
2022-10-24T11:02:59.366Z,100455.97
2022-10-24T11:05:34.442Z,100453.31
2022-10-24T11:08:07.166Z,100450.38
2022-10-24T11:10:35.922Z,100449.38
2022-10-24T11:13:04.655Z,100440.25
2022-10-24T11:15:32.694Z,100446.41
2022-10-24T11:18:01.913Z,100448.38
2022-10-24T11:20:32.268Z,100445.03
2022-10-24T11:23:01.165Z,100456.13
2022-10-24T11:25:31.719Z,100457.50
2022-10-24T11:28:02.381Z,100448.97
2022-10-24T11:30:46.157Z,100454.16
2022-10-24T11:33:16.893Z,100450.81
2022-10-24T11:35:56.666Z,100451.91
2022-10-24T11:38:24.332Z,100444.78
2022-10-24T11:40:57.774Z,100448.69
2022-10-24T11:43:28.779Z,100439.16
2022-10-24T11:45:57.498Z,100432.84
2022-10-24T11:48:26.204Z,100439.84
2022-10-24T11:50:56.413Z,100431.25
2022-10-24T11:53:43.063Z,100438.28
2022-10-24T11:56:13.420Z,100432.41
2022-10-24T11:58:48.535Z,100434.94
2022-10-24T12:01:29.063Z,100426.78
2022-10-24T12:04:07.798Z,100418.06
2022-10-24T12:06:56.420Z,100419.91
2022-10-24T12:09:34.496Z,100418.94
2022-10-24T12:12:08.606Z,100404.94
2022-10-24T12:14:51.762Z,100410.41
2022-10-24T12:17:29.448Z,100426.94
2022-10-24T12:19:56.872Z,100409.09
2022-10-24T12:25:04.717Z,100417.09
2022-10-24T12:27:35.538Z,100412.06
2022-10-24T12:30:04.273Z,100421.75
2022-10-24T12:32:37.619Z,100408.13
2022-10-24T12:35:46.569Z,100405.31
2022-10-24T12:39:08.879Z,100401.25
2022-10-24T12:41:39.072Z,100396.94
2022-10-24T12:44:41.787Z,100392.16
2022-10-24T12:47:30.159Z,100379.50
2022-10-24T12:49:58.121Z,100383.84
2022-10-24T12:52:50.876Z,100384.00
2022-10-24T12:55:33.478Z,100376.84
2022-10-24T12:58:05.134Z,100381.56
2022-10-24T13:00:33.638Z,100379.91
2022-10-24T13:03:06.331Z,100370.91
2022-10-24T13:05:40.912Z,100381.56
2022-10-24T13:08:14.030Z,100382.56
2022-10-24T13:10:46.202Z,100387.50
2022-10-24T13:13:23.268Z,100375.16
2022-10-24T13:15:52.644Z,100376.84
2022-10-24T13:18:27.896Z,100385.22
2022-10-24T13:21:12.662Z,100383.53
2022-10-24T13:23:42.316Z,100373.88
2022-10-24T13:26:09.715Z,100380.44
2022-10-24T13:28:40.373Z,100378.16
2022-10-24T13:31:47.421Z,100389.09
2022-10-24T13:34:25.315Z,100385.00
2022-10-24T13:36:58.990Z,100380.66
2022-10-24T13:39:28.486Z,100392.00
2022-10-24T13:42:00.321Z,100394.66
2022-10-24T13:44:30.473Z,100398.69
2022-10-24T13:47:00.836Z,100394.41
2022-10-24T13:49:29.583Z,100386.09
2022-10-24T13:51:57.722Z,100381.78
2022-10-24T13:54:27.278Z,100390.75
2022-10-24T13:56:57.181Z,100388.56
2022-10-24T13:59:32.812Z,100386.44
2022-10-24T14:02:01.782Z,100394.41
2022-10-24T14:04:29.314Z,100392.03
2022-10-24T14:07:01.542Z,100393.69
2022-10-24T14:09:28.925Z,100393.69
2022-10-24T14:11:57.939Z,100392.72
2022-10-24T14:14:28.799Z,100391.75
2022-10-24T14:17:08.013Z,100386.72
2022-10-24T14:19:39.263Z,100378.34
2022-10-24T14:22:19.128Z,100387.69
2022-10-24T14:24:46.724Z,100388.22
2022-10-24T14:27:14.218Z,100389.78
2022-10-24T14:29:41.635Z,100393.94
2022-10-24T14:32:14.570Z,100389.78
2022-10-24T14:34:41.967Z,100399.59
2022-10-24T14:37:18.054Z,100401.69
2022-10-24T14:39:45.465Z,100404.69
2022-10-24T14:42:14.474Z,100400.19
2022-10-24T14:44:41.929Z,100404.38
2022-10-24T14:47:21.239Z,100412.69
2022-10-24T14:49:49.645Z,100410.44
2022-10-24T14:52:18.710Z,100409.16
2022-10-24T14:54:53.417Z,100406.34
2022-10-24T14:57:21.564Z,100407.19
2022-10-24T14:59:50.278Z,100403.81
2022-10-24T15:02:22.048Z,100410.09
2022-10-24T15:04:51.235Z,100404.94
2022-10-24T15:07:28.633Z,100403.78
2022-10-24T15:09:57.143Z,100394.50
2022-10-24T15:12:27.339Z,100402.03
2022-10-24T15:14:56.549Z,100395.88
2022-10-24T15:17:32.457Z,100408.19
2022-10-24T15:20:01.450Z,100413.53
2022-10-24T15:22:29.765Z,100417.19
2022-10-24T15:24:57.732Z,100423.38
2022-10-24T15:27:27.649Z,100418.19
2022-10-24T15:29:55.149Z,100418.03
2022-10-24T15:32:22.609Z,100413.47
2022-10-24T15:34:54.490Z,100405.06
2022-10-24T15:37:23.217Z,100407.75
2022-10-24T15:39:50.642Z,100405.75
2022-10-24T15:42:20.120Z,100410.00
2022-10-24T15:44:49.900Z,100416.72
2022-10-24T15:47:17.348Z,100423.72
2022-10-24T15:49:44.745Z,100423.72
2022-10-24T15:52:13.956Z,100433.78
2022-10-24T15:54:42.041Z,100420.59
2022-10-24T15:57:10.652Z,100424.13
2022-10-24T15:59:38.062Z,100427.03
2022-10-24T16:02:05.575Z,100431.47
2022-10-24T16:04:33.333Z,100420.78
2022-10-24T16:07:02.253Z,100426.66
2022-10-24T16:09:31.073Z,100434.38
2022-10-24T16:11:58.517Z,100438.69
2022-10-24T16:14:26.590Z,100436.03
2022-10-24T16:16:54.859Z,100445.84
2022-10-24T16:19:22.276Z,100441.22
2022-10-24T16:21:49.683Z,100444.63
2022-10-24T16:24:18.325Z,100449.69
2022-10-24T16:26:47.054Z,100456.97
2022-10-24T16:29:14.465Z,100456.38
2022-10-24T16:31:42.213Z,100461.13
2022-10-24T16:34:09.702Z,100459.19
2022-10-24T16:36:37.113Z,100458.34
2022-10-24T16:39:04.646Z,100465.34
2022-10-24T16:41:32.051Z,100462.53
2022-10-24T16:44:00.954Z,100459.19
2022-10-24T16:46:28.474Z,100471.00
2022-10-24T16:48:56.049Z,100467.03
2022-10-24T16:51:25.042Z,100465.06
2022-10-24T16:53:52.471Z,100463.41
2022-10-24T16:56:19.889Z,100458.91
2022-10-24T16:58:47.320Z,100466.06
2022-10-24T17:01:16.239Z,100473.88
2022-10-24T17:03:44.745Z,100466.22
2022-10-24T17:06:12.287Z,100474.88
2022-10-24T17:08:40.661Z,100470.38
2022-10-24T17:11:25.781Z,100462.38
2022-10-24T17:13:55.537Z,100465.88
2022-10-24T17:16:24.514Z,100471.22
2022-10-24T17:19:05.567Z,100472.06
2022-10-24T17:21:41.299Z,100465.88
2022-10-24T17:24:11.145Z,100465.06
2022-10-24T17:26:38.627Z,100466.59
2022-10-24T17:29:08.137Z,100466.44
2022-10-24T17:31:36.982Z,100459.97
2022-10-24T17:34:04.984Z,100463.78
2022-10-24T17:36:34.530Z,100463.41
2022-10-24T17:39:09.208Z,100459.56
2022-10-24T17:41:39.143Z,100467.72
2022-10-24T17:44:07.285Z,100468.41
2022-10-24T17:46:35.028Z,100464.06
2022-10-24T17:49:03.709Z,100470.69
2022-10-24T17:51:36.923Z,100475.47
2022-10-24T17:54:05.786Z,100471.00
2022-10-24T17:56:33.215Z,100481.34
2022-10-24T17:59:00.644Z,100484.88
2022-10-24T18:01:28.133Z,100490.19
2022-10-24T18:03:55.609Z,100483.03
2022-10-24T18:06:24.336Z,100487.66
2022-10-24T18:08:53.647Z,100489.34
2022-10-24T18:11:21.066Z,100490.06
2022-10-24T18:13:48.507Z,100492.00
2022-10-24T18:16:17.869Z,100487.66
2022-10-24T18:18:46.046Z,100492.88
2022-10-24T18:21:14.823Z,100490.06
2022-10-24T18:23:43.626Z,100491.03
2022-10-24T18:26:12.047Z,100495.59
2022-10-24T18:28:39.708Z,100498.44
2022-10-24T18:31:08.971Z,100491.41
2022-10-24T18:33:36.391Z,100498.59
2022-10-24T18:36:08.241Z,100496.75
2022-10-24T18:38:35.898Z,100502.91
2022-10-24T18:41:05.030Z,100501.25
2022-10-24T18:43:32.648Z,100501.41
2022-10-24T18:46:00.434Z,100503.06
2022-10-24T18:48:28.203Z,100500.38
2022-10-24T18:50:55.864Z,100503.91
2022-10-24T18:53:24.003Z,100502.38
2022-10-24T18:55:51.812Z,100507.69
2022-10-24T18:58:20.765Z,100502.38
2022-10-24T19:00:48.517Z,100498.44
2022-10-24T19:03:21.587Z,100499.13
2022-10-24T19:05:53.815Z,100504.06
2022-10-24T19:08:23.410Z,100514.72
2022-10-24T19:10:53.794Z,100505.31
2022-10-24T19:13:22.808Z,100507.00
2022-10-24T19:15:53.060Z,100507.84
2022-10-24T19:18:20.472Z,100512.06
2022-10-24T19:20:47.887Z,100504.34
2022-10-24T19:23:15.845Z,100506.19
2022-10-24T19:25:43.287Z,100513.03
2022-10-24T19:28:11.346Z,100506.34
2022-10-24T19:30:42.196Z,100501.00
2022-10-24T19:33:09.621Z,100506.19
2022-10-24T19:35:37.181Z,100502.13
2022-10-24T19:38:04.617Z,100498.47
2022-10-24T19:40:32.051Z,100500.13
2022-10-24T19:42:59.469Z,100500.31
2022-10-24T19:45:26.881Z,100501.28
2022-10-24T19:47:56.285Z,100507.31
2022-10-24T19:50:23.698Z,100508.00
2022-10-24T19:52:51.102Z,100506.34
2022-10-24T19:55:18.492Z,100504.63
2022-10-24T19:57:46.155Z,100497.78
2022-10-24T20:00:14.555Z,100504.78
2022-10-24T20:02:42.648Z,100500.59
2022-10-24T20:05:11.501Z,100504.09
2022-10-24T20:07:38.918Z,100502.13
2022-10-24T20:10:07.292Z,100507.06
2022-10-24T20:12:34.712Z,100506.75
2022-10-24T20:15:02.191Z,100511.94
2022-10-24T20:17:29.688Z,100522.63
2022-10-24T20:19:57.115Z,100521.78
2022-10-24T20:22:25.832Z,100517.28
2022-10-24T20:24:53.222Z,100529.91
2022-10-24T20:27:23.747Z,100517.56
2022-10-24T20:29:52.184Z,100515.06
2022-10-24T20:32:20.182Z,100519.56
2022-10-24T20:34:47.587Z,100535.53
2022-10-24T20:37:15.053Z,100534.25
2022-10-24T20:39:43.788Z,100534.44
2022-10-24T20:42:11.410Z,100532.72
2022-10-24T20:44:38.816Z,100532.31
2022-10-24T20:47:06.229Z,100539.44
2022-10-24T20:49:33.630Z,100534.09
2022-10-24T20:52:01.113Z,100547.16
2022-10-24T20:54:28.563Z,100542.78
2022-10-24T20:56:57.297Z,100534.66
2022-10-24T20:59:24.724Z,100548.97
2022-10-24T21:01:52.220Z,100545.31
2022-10-24T21:04:20.826Z,100551.66
2022-10-24T21:06:48.478Z,100551.78
2022-10-24T21:09:15.897Z,100559.63
2022-10-24T21:11:43.382Z,100555.28
2022-10-24T21:14:12.837Z,100558.78
2022-10-24T21:16:40.246Z,100559.94
2022-10-24T21:19:07.652Z,100558.25
2022-10-24T21:21:35.036Z,100564.28
2022-10-24T21:24:05.843Z,100561.91
2022-10-24T21:26:37.818Z,100563.56
2022-10-24T21:29:15.024Z,100568.91
2022-10-24T21:31:53.910Z,100556.88
2022-10-24T21:34:21.557Z,100559.53
2022-10-24T21:36:48.967Z,100570.19
2022-10-24T21:39:16.765Z,100564.56
2022-10-24T21:41:44.249Z,100567.25
2022-10-24T21:44:11.857Z,100570.19
2022-10-24T21:46:39.271Z,100581.69
2022-10-24T21:49:07.997Z,100571.16
2022-10-24T21:51:36.316Z,100576.22
2022-10-24T21:54:04.959Z,100581.41
2022-10-24T21:56:33.786Z,100575.09
2022-10-24T22:01:31.678Z,100583.22
2022-10-24T22:03:59.556Z,100592.75
2022-10-24T22:06:28.924Z,100583.09
2022-10-24T22:08:56.623Z,100588.56
2022-10-24T22:11:24.834Z,100593.91
2022-10-24T22:13:52.535Z,100592.19
2022-10-24T22:16:20.812Z,100591.22
2022-10-24T22:18:48.262Z,100597.53
2022-10-24T22:21:18.610Z,100604.69
2022-10-24T22:23:47.281Z,100600.47
2022-10-24T22:26:14.692Z,100593.19
2022-10-24T22:28:42.230Z,100605.66
2022-10-24T22:31:10.370Z,100601.34
2022-10-24T22:33:38.544Z,100611.88
2022-10-24T22:36:08.802Z,100610.84
2022-10-24T22:38:36.640Z,100617.06
2022-10-24T22:41:05.798Z,100604.56
2022-10-24T22:43:33.930Z,100617.88
2022-10-24T22:46:05.319Z,100614.53
2022-10-24T22:48:33.983Z,100619.53
2022-10-24T22:51:01.527Z,100613.38
2022-10-24T22:53:30.650Z,100618.56
2022-10-24T22:56:11.571Z,100624.88
2022-10-24T22:58:39.435Z,100624.59
2022-10-24T23:01:13.609Z,100626.53
2022-10-24T23:03:46.013Z,100626.69
2022-10-24T23:06:14.744Z,100627.38
2022-10-24T23:08:43.799Z,100632.72
2022-10-24T23:11:13.269Z,100630.31
2022-10-24T23:13:41.090Z,100631.72
2022-10-24T23:16:11.505Z,100635.09
2022-10-24T23:18:39.295Z,100627.09
2022-10-24T23:21:12.126Z,100630.59
2022-10-24T23:23:39.918Z,100633.78
2022-10-24T23:26:09.879Z,100632.81
2022-10-24T23:28:40.484Z,100640.97
2022-10-24T23:31:08.421Z,100635.50
2022-10-24T23:33:36.366Z,100639.00
2022-10-24T23:36:04.223Z,100630.16
2022-10-24T23:38:32.534Z,100631.97
2022-10-24T23:41:00.594Z,100645.47
2022-10-24T23:43:28.318Z,100637.59
2022-10-24T23:46:00.219Z,100642.09
2022-10-24T23:48:35.983Z,100639.13
2022-10-24T23:51:05.330Z,100643.50
2022-10-24T23:53:36.363Z,100642.47
2022-10-24T23:56:04.402Z,100647.97
2022-10-24T23:58:31.906Z,100646.84
